sensor_id;sensor_type;location;lat;lon;timestamp;pressure;altitude;pressure_sealevel;temperature;humidity
9746;BME280;4912;50.836;12.958;2023-05-29T00:01:25;98051.53;;;15.00;56.92
9746;BME280;4912;50.836;12.958;2023-05-29T00:04:01;98053.75;;;14.96;57.51
9746;BME280;4912;50.836;12.958;2023-05-29T00:06:32;98048.94;;;14.97;58.38
9746;BME280;4912;50.836;12.958;2023-05-29T00:09:03;98047.69;;;14.98;58.57
9746;BME280;4912;50.836;12.958;2023-05-29T00:11:34;98047.69;;;14.98;58.46
9746;BME280;4912;50.836;12.958;2023-05-29T00:14:04;98047.44;;;14.96;58.15
9746;BME280;4912;50.836;12.958;2023-05-29T00:16:35;98053.97;;;14.93;58.97
9746;BME280;4912;50.836;12.958;2023-05-29T00:19:08;98044.53;;;14.85;60.21
9746;BME280;4912;50.836;12.958;2023-05-29T00:21:39;98046.56;;;14.84;59.67
9746;BME280;4912;50.836;12.958;2023-05-29T00:24:10;98049.56;;;14.81;59.14
9746;BME280;4912;50.836;12.958;2023-05-29T00:26:40;98054.59;;;14.77;58.50
9746;BME280;4912;50.836;12.958;2023-05-29T00:29:11;98046.16;;;14.71;59.54
9746;BME280;4912;50.836;12.958;2023-05-29T00:31:42;98049.38;;;14.64;59.06
9746;BME280;4912;50.836;12.958;2023-05-29T00:34:15;98051.38;;;14.63;59.45
9746;BME280;4912;50.836;12.958;2023-05-29T00:36:46;98045.53;;;14.61;59.39
9746;BME280;4912;50.836;12.958;2023-05-29T00:39:16;98041.44;;;14.57;60.17
9746;BME280;4912;50.836;12.958;2023-05-29T00:41:47;98034.63;;;14.58;60.73
9746;BME280;4912;50.836;12.958;2023-05-29T00:44:18;98042.22;;;14.57;60.34
9746;BME280;4912;50.836;12.958;2023-05-29T00:46:51;98033.78;;;14.52;59.97
9746;BME280;4912;50.836;12.958;2023-05-29T00:49:26;98033.44;;;14.44;60.28
9746;BME280;4912;50.836;12.958;2023-05-29T00:51:57;98033.25;;;14.48;60.39
9746;BME280;4912;50.836;12.958;2023-05-29T00:54:29;98036.50;;;14.46;60.87
9746;BME280;4912;50.836;12.958;2023-05-29T00:57:04;98034.97;;;14.45;60.35
9746;BME280;4912;50.836;12.958;2023-05-29T00:59:35;98033.66;;;14.41;60.88
9746;BME280;4912;50.836;12.958;2023-05-29T01:02:06;98044.50;;;14.39;60.97
9746;BME280;4912;50.836;12.958;2023-05-29T01:04:40;98032.03;;;14.34;61.03
9746;BME280;4912;50.836;12.958;2023-05-29T01:07:11;98035.03;;;14.30;61.63
9746;BME280;4912;50.836;12.958;2023-05-29T01:09:42;98035.03;;;14.30;61.66
9746;BME280;4912;50.836;12.958;2023-05-29T01:12:25;98035.22;;;14.27;62.06
9746;BME280;4912;50.836;12.958;2023-05-29T01:15:19;98034.75;;;14.28;62.25
9746;BME280;4912;50.836;12.958;2023-05-29T01:18:12;98033.16;;;14.22;62.11
9746;BME280;4912;50.836;12.958;2023-05-29T01:20:58;98030.84;;;14.20;62.45
9746;BME280;4912;50.836;12.958;2023-05-29T01:23:51;98034.63;;;14.17;62.40
9746;BME280;4912;50.836;12.958;2023-05-29T01:26:51;98040.66;;;14.16;62.90
9746;BME280;4912;50.836;12.958;2023-05-29T01:29:28;98035.31;;;14.12;62.27
9746;BME280;4912;50.836;12.958;2023-05-29T01:32:00;98037.81;;;14.10;62.27
9746;BME280;4912;50.836;12.958;2023-05-29T01:34:32;98044.34;;;14.07;63.00
9746;BME280;4912;50.836;12.958;2023-05-29T01:37:02;98037.72;;;14.05;62.96
9746;BME280;4912;50.836;12.958;2023-05-29T01:39:34;98038.97;;;14.04;62.75
9746;BME280;4912;50.836;12.958;2023-05-29T01:42:08;98039.38;;;13.97;63.33
9746;BME280;4912;50.836;12.958;2023-05-29T01:44:39;98032.78;;;13.94;63.41
9746;BME280;4912;50.836;12.958;2023-05-29T01:47:10;98032.72;;;13.88;63.83
9746;BME280;4912;50.836;12.958;2023-05-29T01:49:41;98038.47;;;13.85;63.72
9746;BME280;4912;50.836;12.958;2023-05-29T01:52:12;98034.66;;;13.82;63.90
9746;BME280;4912;50.836;12.958;2023-05-29T01:54:43;98040.22;;;13.82;63.82
9746;BME280;4912;50.836;12.958;2023-05-29T01:57:16;98038.88;;;13.78;63.93
9746;BME280;4912;50.836;12.958;2023-05-29T01:59:47;98035.34;;;13.77;63.92
9746;BME280;4912;50.836;12.958;2023-05-29T02:02:18;98038.03;;;13.72;64.33
9746;BME280;4912;50.836;12.958;2023-05-29T02:04:51;98040.53;;;13.70;64.29
9746;BME280;4912;50.836;12.958;2023-05-29T02:07:23;98036.50;;;13.71;63.93
9746;BME280;4912;50.836;12.958;2023-05-29T02:09:53;98039.28;;;13.71;64.33
9746;BME280;4912;50.836;12.958;2023-05-29T02:12:26;98038.69;;;13.67;64.14
9746;BME280;4912;50.836;12.958;2023-05-29T02:14:57;98039.97;;;13.66;64.63
9746;BME280;4912;50.836;12.958;2023-05-29T02:17:28;98044.47;;;13.63;64.22
9746;BME280;4912;50.836;12.958;2023-05-29T02:20:00;98044.38;;;13.58;64.36
9746;BME280;4912;50.836;12.958;2023-05-29T02:22:31;98045.38;;;13.55;64.80
9746;BME280;4912;50.836;12.958;2023-05-29T02:25:02;98042.78;;;13.51;64.56
9746;BME280;4912;50.836;12.958;2023-05-29T02:27:36;98048.31;;;13.51;64.36
9746;BME280;4912;50.836;12.958;2023-05-29T02:30:07;98051.59;;;13.49;64.59
9746;BME280;4912;50.836;12.958;2023-05-29T02:32:40;98051.31;;;13.47;64.70
9746;BME280;4912;50.836;12.958;2023-05-29T02:35:11;98047.94;;;13.43;64.41
9746;BME280;4912;50.836;12.958;2023-05-29T02:37:42;98053.50;;;13.43;65.13
9746;BME280;4912;50.836;12.958;2023-05-29T02:40:15;98049.47;;;13.44;64.82
9746;BME280;4912;50.836;12.958;2023-05-29T02:42:49;98054.69;;;13.37;64.67
9746;BME280;4912;50.836;12.958;2023-05-29T02:45:19;98059.94;;;13.35;64.45
9746;BME280;4912;50.836;12.958;2023-05-29T02:47:50;98050.56;;;13.32;64.55
9746;BME280;4912;50.836;12.958;2023-05-29T02:50:21;98046.91;;;13.26;64.82
9746;BME280;4912;50.836;12.958;2023-05-29T02:52:51;98064.34;;;13.27;64.70
9746;BME280;4912;50.836;12.958;2023-05-29T02:55:22;98058.91;;;13.18;64.33
9746;BME280;4912;50.836;12.958;2023-05-29T02:57:55;98052.28;;;13.15;64.62
9746;BME280;4912;50.836;12.958;2023-05-29T03:00:27;98056.31;;;13.14;65.42
9746;BME280;4912;50.836;12.958;2023-05-29T03:02:57;98054.16;;;13.09;65.52
9746;BME280;4912;50.836;12.958;2023-05-29T03:05:28;98053.41;;;13.08;65.60
9746;BME280;4912;50.836;12.958;2023-05-29T03:07:59;98056.69;;;13.07;66.36
9746;BME280;4912;50.836;12.958;2023-05-29T03:10:29;98055.13;;;13.06;65.70
9746;BME280;4912;50.836;12.958;2023-05-29T03:13:02;98054.84;;;13.04;65.63
9746;BME280;4912;50.836;12.958;2023-05-29T03:15:36;98054.06;;;13.03;66.02
9746;BME280;4912;50.836;12.958;2023-05-29T03:18:07;98053.59;;;13.05;66.01
9746;BME280;4912;50.836;12.958;2023-05-29T03:20:38;98056.09;;;13.03;65.95
9746;BME280;4912;50.836;12.958;2023-05-29T03:23:09;98057.53;;;12.98;65.60
9746;BME280;4912;50.836;12.958;2023-05-29T03:25:40;98053.97;;;12.98;65.84
9746;BME280;4912;50.836;12.958;2023-05-29T03:28:13;98054.94;;;12.95;65.53
9746;BME280;4912;50.836;12.958;2023-05-29T03:30:44;98057.72;;;12.95;65.56
9746;BME280;4912;50.836;12.958;2023-05-29T03:33:17;98055.22;;;12.97;65.32
9746;BME280;4912;50.836;12.958;2023-05-29T03:36:11;98061.53;;;12.97;65.49
9746;BME280;4912;50.836;12.958;2023-05-29T03:38:44;98067.09;;;12.97;65.73
9746;BME280;4912;50.836;12.958;2023-05-29T03:41:15;98068.84;;;12.95;65.93
9746;BME280;4912;50.836;12.958;2023-05-29T03:43:48;98074.38;;;12.95;66.19
9746;BME280;4912;50.836;12.958;2023-05-29T03:46:20;98067.59;;;12.96;66.64
9746;BME280;4912;50.836;12.958;2023-05-29T03:48:51;98078.41;;;12.94;66.83
9746;BME280;4912;50.836;12.958;2023-05-29T03:51:22;98071.63;;;12.95;67.16
9746;BME280;4912;50.836;12.958;2023-05-29T03:53:54;98073.88;;;12.96;66.67
9746;BME280;4912;50.836;12.958;2023-05-29T03:56:25;98082.22;;;12.96;66.82
9746;BME280;4912;50.836;12.958;2023-05-29T03:58:58;98079.28;;;13.00;66.35
9746;BME280;4912;50.836;12.958;2023-05-29T04:01:30;98090.09;;;12.98;66.29
9746;BME280;4912;50.836;12.958;2023-05-29T04:04:01;98084.25;;;12.96;66.54
9746;BME280;4912;50.836;12.958;2023-05-29T04:06:32;98089.31;;;12.97;66.69
9746;BME280;4912;50.836;12.958;2023-05-29T04:09:05;98094.88;;;12.97;66.90
9746;BME280;4912;50.836;12.958;2023-05-29T04:11:36;98090.97;;;13.04;67.14
9746;BME280;4912;50.836;12.958;2023-05-29T04:14:13;98097.75;;;13.03;67.83
9746;BME280;4912;50.836;12.958;2023-05-29T04:16:46;98102.84;;;13.04;67.92
9746;BME280;4912;50.836;12.958;2023-05-29T04:19:17;98107.91;;;13.06;67.74
9746;BME280;4912;50.836;12.958;2023-05-29T04:21:48;98096.81;;;13.06;68.13
9746;BME280;4912;50.836;12.958;2023-05-29T04:24:18;98107.25;;;13.11;68.22
9746;BME280;4912;50.836;12.958;2023-05-29T04:26:49;98106.59;;;13.16;68.21
9746;BME280;4912;50.836;12.958;2023-05-29T04:29:23;98103.63;;;13.20;68.32
9746;BME280;4912;50.836;12.958;2023-05-29T04:31:53;98109.59;;;13.27;67.97
9746;BME280;4912;50.836;12.958;2023-05-29T04:34:25;98110.44;;;13.33;68.10
9746;BME280;4912;50.836;12.958;2023-05-29T04:36:57;98118.41;;;13.40;67.53
9746;BME280;4912;50.836;12.958;2023-05-29T04:39:30;98115.94;;;13.42;67.91
9746;BME280;4912;50.836;12.958;2023-05-29T04:42:02;98119.56;;;13.48;67.05
9746;BME280;4912;50.836;12.958;2023-05-29T04:44:37;98125.00;;;13.58;66.99
9746;BME280;4912;50.836;12.958;2023-05-29T04:47:08;98128.44;;;13.67;66.80
9746;BME280;4912;50.836;12.958;2023-05-29T04:49:39;98127.28;;;13.74;65.92
9746;BME280;4912;50.836;12.958;2023-05-29T04:52:10;98128.16;;;13.80;64.74
9746;BME280;4912;50.836;12.958;2023-05-29T04:54:41;98136.09;;;13.87;64.04
9746;BME280;4912;50.836;12.958;2023-05-29T04:57:13;98123.81;;;13.93;63.83
9746;BME280;4912;50.836;12.958;2023-05-29T04:59:46;98120.81;;;13.97;63.91
9746;BME280;4912;50.836;12.958;2023-05-29T05:02:17;98125.72;;;14.02;64.31
9746;BME280;4912;50.836;12.958;2023-05-29T05:04:47;98134.91;;;14.08;64.59
9746;BME280;4912;50.836;12.958;2023-05-29T05:07:18;98125.91;;;14.13;64.43
9746;BME280;4912;50.836;12.958;2023-05-29T05:09:49;98135.66;;;14.23;64.41
9746;BME280;4912;50.836;12.958;2023-05-29T05:12:23;98138.59;;;14.34;64.18
9746;BME280;4912;50.836;12.958;2023-05-29T05:14:57;98146.06;;;14.43;64.21
9746;BME280;4912;50.836;12.958;2023-05-29T05:17:28;98145.47;;;14.54;64.10
9746;BME280;4912;50.836;12.958;2023-05-29T05:19:59;98142.22;;;14.61;64.22
9746;BME280;4912;50.836;12.958;2023-05-29T05:22:33;98145.44;;;14.74;63.17
9746;BME280;4912;50.836;12.958;2023-05-29T05:25:05;98144.81;;;14.85;62.46
9746;BME280;4912;50.836;12.958;2023-05-29T05:27:36;98146.97;;;14.95;62.36
9746;BME280;4912;50.836;12.958;2023-05-29T05:30:11;98147.53;;;14.99;61.66
9746;BME280;4912;50.836;12.958;2023-05-29T05:32:43;98151.78;;;14.95;61.15
9746;BME280;4912;50.836;12.958;2023-05-29T05:35:14;98148.31;;;15.00;60.60
9746;BME280;4912;50.836;12.958;2023-05-29T05:37:46;98151.44;;;15.07;60.41
9746;BME280;4912;50.836;12.958;2023-05-29T05:40:17;98152.84;;;15.23;59.46
9746;BME280;4912;50.836;12.958;2023-05-29T05:42:55;98154.03;;;15.37;59.24
9746;BME280;4912;50.836;12.958;2023-05-29T05:45:54;98149.81;;;15.47;59.59
9746;BME280;4912;50.836;12.958;2023-05-29T05:48:25;98162.44;;;15.68;59.54
9746;BME280;4912;50.836;12.958;2023-05-29T05:50:55;98159.75;;;15.79;58.64
9746;BME280;4912;50.836;12.958;2023-05-29T05:53:26;98162.53;;;15.79;58.05
9746;BME280;4912;50.836;12.958;2023-05-29T05:55:57;98164.69;;;15.90;58.12
9746;BME280;4912;50.836;12.958;2023-05-29T05:58:27;98156.69;;;16.09;58.08
9746;BME280;4912;50.836;12.958;2023-05-29T06:01:01;98165.22;;;16.31;57.26
9746;BME280;4912;50.836;12.958;2023-05-29T06:03:31;98162.97;;;16.35;56.21
9746;BME280;4912;50.836;12.958;2023-05-29T06:06:07;98159.25;;;16.49;54.96
9746;BME280;4912;50.836;12.958;2023-05-29T06:08:40;98160.38;;;16.68;55.78
9746;BME280;4912;50.836;12.958;2023-05-29T06:11:12;98160.72;;;16.87;56.27
9746;BME280;4912;50.836;12.958;2023-05-29T06:13:45;98155.66;;;16.97;54.38
9746;BME280;4912;50.836;12.958;2023-05-29T06:16:24;98163.81;;;17.00;54.07
9746;BME280;4912;50.836;12.958;2023-05-29T06:18:54;98172.50;;;17.08;55.38
9746;BME280;4912;50.836;12.958;2023-05-29T06:21:26;98176.09;;;17.25;55.93
9746;BME280;4912;50.836;12.958;2023-05-29T06:23:57;98169.78;;;17.41;55.10
9746;BME280;4912;50.836;12.958;2023-05-29T06:26:27;98166.50;;;17.59;54.72
9746;BME280;4912;50.836;12.958;2023-05-29T06:28:58;98171.13;;;17.74;54.08
9746;BME280;4912;50.836;12.958;2023-05-29T06:31:32;98173.41;;;17.97;53.21
9746;BME280;4912;50.836;12.958;2023-05-29T06:34:02;98168.56;;;18.20;54.52
9746;BME280;4912;50.836;12.958;2023-05-29T06:36:33;98179.22;;;18.44;52.03
9746;BME280;4912;50.836;12.958;2023-05-29T06:39:05;98180.75;;;18.62;50.77
9746;BME280;4912;50.836;12.958;2023-05-29T06:41:36;98181.50;;;18.79;50.79
9746;BME280;4912;50.836;12.958;2023-05-29T06:44:06;98174.53;;;19.02;50.67
9746;BME280;4912;50.836;12.958;2023-05-29T06:46:41;98180.13;;;19.02;48.88
9746;BME280;4912;50.836;12.958;2023-05-29T06:49:12;98182.81;;;19.25;49.99
9746;BME280;4912;50.836;12.958;2023-05-29T06:51:44;98184.78;;;19.41;48.03
9746;BME280;4912;50.836;12.958;2023-05-29T06:54:38;98184.50;;;19.44;48.18
9746;BME280;4912;50.836;12.958;2023-05-29T06:57:09;98184.91;;;19.65;47.62
9746;BME280;4912;50.836;12.958;2023-05-29T06:59:41;98191.03;;;19.63;46.64
9746;BME280;4912;50.836;12.958;2023-05-29T07:02:14;98193.50;;;19.78;46.57
9746;BME280;4912;50.836;12.958;2023-05-29T07:04:49;98193.84;;;19.99;46.24
9746;BME280;4912;50.836;12.958;2023-05-29T07:07:20;98200.38;;;20.13;46.17
9746;BME280;4912;50.836;12.958;2023-05-29T07:09:50;98196.41;;;20.27;45.81
9746;BME280;4912;50.836;12.958;2023-05-29T07:12:22;98191.22;;;20.42;45.56
9746;BME280;4912;50.836;12.958;2023-05-29T07:14:52;98191.81;;;20.59;44.13
9746;BME280;4912;50.836;12.958;2023-05-29T07:17:26;98194.84;;;20.85;46.03
9746;BME280;4912;50.836;12.958;2023-05-29T07:20:09;98195.53;;;21.16;45.86
9746;BME280;4912;50.836;12.958;2023-05-29T07:22:42;98195.88;;;21.31;43.02
9746;BME280;4912;50.836;12.958;2023-05-29T07:25:12;98197.25;;;21.43;41.88
9746;BME280;4912;50.836;12.958;2023-05-29T07:27:43;98194.94;;;21.60;41.80
9746;BME280;4912;50.836;12.958;2023-05-29T07:30:14;98200.84;;;21.76;40.92
9746;BME280;4912;50.836;12.958;2023-05-29T07:32:49;98203.44;;;21.74;38.55
9746;BME280;4912;50.836;12.958;2023-05-29T07:35:19;98199.66;;;21.71;37.81
9746;BME280;4912;50.836;12.958;2023-05-29T07:37:50;98203.50;;;21.87;37.26
9746;BME280;4912;50.836;12.958;2023-05-29T07:40:22;98202.88;;;22.13;37.51
9746;BME280;4912;50.836;12.958;2023-05-29T07:43:10;98206.09;;;22.35;38.01
9746;BME280;4912;50.836;12.958;2023-05-29T07:45:54;98203.97;;;22.68;37.93
9746;BME280;4912;50.836;12.958;2023-05-29T07:48:28;98213.66;;;22.85;37.85
9746;BME280;4912;50.836;12.958;2023-05-29T07:50:59;98213.13;;;23.13;38.39
9746;BME280;4912;50.836;12.958;2023-05-29T07:53:34;98207.53;;;23.34;35.17
9746;BME280;4912;50.836;12.958;2023-05-29T07:56:04;98214.31;;;23.31;34.90
9746;BME280;4912;50.836;12.958;2023-05-29T07:58:35;98212.41;;;23.60;37.47
9746;BME280;4912;50.836;12.958;2023-05-29T08:01:07;98213.84;;;23.87;37.17
9746;BME280;4912;50.836;12.958;2023-05-29T08:03:40;98209.84;;;24.03;34.72
9746;BME280;4912;50.836;12.958;2023-05-29T08:06:20;98216.97;;;24.18;35.61
9746;BME280;4912;50.836;12.958;2023-05-29T08:08:51;98218.34;;;24.37;36.02
9746;BME280;4912;50.836;12.958;2023-05-29T08:11:22;98219.81;;;24.59;35.68
9746;BME280;4912;50.836;12.958;2023-05-29T08:13:53;98224.63;;;24.72;35.47
9746;BME280;4912;50.836;12.958;2023-05-29T08:16:24;98229.72;;;24.94;34.49
9746;BME280;4912;50.836;12.958;2023-05-29T08:18:57;98230.28;;;25.21;34.63
9746;BME280;4912;50.836;12.958;2023-05-29T08:21:28;98226.38;;;25.32;34.48
9746;BME280;4912;50.836;12.958;2023-05-29T08:23:59;98228.19;;;25.57;34.45
9746;BME280;4912;50.836;12.958;2023-05-29T08:26:32;98225.06;;;25.84;34.68
9746;BME280;4912;50.836;12.958;2023-05-29T08:29:02;98224.66;;;25.72;30.81
9746;BME280;4912;50.836;12.958;2023-05-29T08:31:32;98231.44;;;25.61;31.21
9746;BME280;4912;50.836;12.958;2023-05-29T08:34:06;98220.53;;;25.81;31.78
9746;BME280;4912;50.836;12.958;2023-05-29T08:36:37;98218.53;;;26.19;32.89
9746;BME280;4912;50.836;12.958;2023-05-29T08:39:08;98208.72;;;26.66;31.31
9746;BME280;4912;50.836;12.958;2023-05-29T08:41:47;98220.19;;;27.28;32.34
9746;BME280;4912;50.836;12.958;2023-05-29T08:44:29;98221.06;;;27.94;32.09
9746;BME280;4912;50.836;12.958;2023-05-29T08:47:02;98208.25;;;28.42;30.49
9746;BME280;4912;50.836;12.958;2023-05-29T08:49:40;98214.00;;;28.84;30.09
9746;BME280;4912;50.836;12.958;2023-05-29T08:52:16;98215.72;;;29.39;30.81
9746;BME280;4912;50.836;12.958;2023-05-29T08:54:47;98210.28;;;29.78;29.31
9746;BME280;4912;50.836;12.958;2023-05-29T08:57:18;98210.50;;;30.16;27.82
9746;BME280;4912;50.836;12.958;2023-05-29T08:59:51;98216.75;;;30.32;28.36
9746;BME280;4912;50.836;12.958;2023-05-29T09:02:22;98220.50;;;30.34;26.83
9746;BME280;4912;50.836;12.958;2023-05-29T09:04:57;98222.22;;;30.47;27.02
9746;BME280;4912;50.836;12.958;2023-05-29T09:07:27;98214.84;;;30.80;27.60
9746;BME280;4912;50.836;12.958;2023-05-29T09:09:58;98210.34;;;30.97;27.52
9746;BME280;4912;50.836;12.958;2023-05-29T09:12:30;98211.09;;;30.87;24.71
9746;BME280;4912;50.836;12.958;2023-05-29T09:15:01;98223.13;;;30.96;26.68
9746;BME280;4912;50.836;12.958;2023-05-29T09:17:33;98214.75;;;31.07;25.05
9746;BME280;4912;50.836;12.958;2023-05-29T09:20:14;98210.84;;;31.12;24.07
9746;BME280;4912;50.836;12.958;2023-05-29T09:22:52;98212.66;;;31.17;25.65
9746;BME280;4912;50.836;12.958;2023-05-29T09:25:25;98210.88;;;31.51;26.30
9746;BME280;4912;50.836;12.958;2023-05-29T09:27:59;98211.31;;;31.66;25.72
9746;BME280;4912;50.836;12.958;2023-05-29T09:30:33;98216.38;;;31.97;25.96
9746;BME280;4912;50.836;12.958;2023-05-29T09:33:07;98207.63;;;32.04;24.63
9746;BME280;4912;50.836;12.958;2023-05-29T09:35:42;98211.69;;;32.01;23.72
9746;BME280;4912;50.836;12.958;2023-05-29T09:38:15;98215.34;;;31.92;22.50
9746;BME280;4912;50.836;12.958;2023-05-29T09:40:50;98213.22;;;32.02;23.89
9746;BME280;4912;50.836;12.958;2023-05-29T09:43:22;98210.81;;;31.89;23.25
9746;BME280;4912;50.836;12.958;2023-05-29T09:45:53;98211.41;;;31.97;23.98
9746;BME280;4912;50.836;12.958;2023-05-29T09:48:24;98218.91;;;32.22;23.96
9746;BME280;4912;50.836;12.958;2023-05-29T09:51:02;98214.31;;;32.38;24.25
9746;BME280;4912;50.836;12.958;2023-05-29T09:53:33;98218.72;;;32.60;24.78
9746;BME280;4912;50.836;12.958;2023-05-29T09:56:04;98216.97;;;32.55;24.04
9746;BME280;4912;50.836;12.958;2023-05-29T09:58:35;98221.13;;;32.73;25.03
9746;BME280;4912;50.836;12.958;2023-05-29T10:01:12;98221.66;;;32.81;24.38
9746;BME280;4912;50.836;12.958;2023-05-29T10:03:43;98222.97;;;32.90;23.84
9746;BME280;4912;50.836;12.958;2023-05-29T10:06:18;98215.94;;;33.03;23.41
9746;BME280;4912;50.836;12.958;2023-05-29T10:08:51;98211.16;;;33.17;24.23
9746;BME280;4912;50.836;12.958;2023-05-29T10:11:25;98215.63;;;33.29;24.11
9746;BME280;4912;50.836;12.958;2023-05-29T10:13:57;98210.41;;;32.95;22.12
9746;BME280;4912;50.836;12.958;2023-05-29T10:16:28;98214.03;;;32.65;21.52
9746;BME280;4912;50.836;12.958;2023-05-29T10:19:05;98206.38;;;32.88;22.25
9746;BME280;4912;50.836;12.958;2023-05-29T10:21:41;98211.44;;;33.00;23.70
9746;BME280;4912;50.836;12.958;2023-05-29T10:24:12;98208.91;;;33.15;23.88
9746;BME280;4912;50.836;12.958;2023-05-29T10:26:47;98212.16;;;33.31;22.71
9746;BME280;4912;50.836;12.958;2023-05-29T10:29:24;98210.44;;;33.38;23.19
9746;BME280;4912;50.836;12.958;2023-05-29T10:32:17;98205.56;;;33.40;22.76
9746;BME280;4912;50.836;12.958;2023-05-29T10:34:57;98210.47;;;33.49;23.40
9746;BME280;4912;50.836;12.958;2023-05-29T10:37:40;98208.06;;;33.34;21.21
9746;BME280;4912;50.836;12.958;2023-05-29T10:40:14;98209.69;;;33.37;22.99
9746;BME280;4912;50.836;12.958;2023-05-29T10:42:46;98202.88;;;33.21;21.31
9746;BME280;4912;50.836;12.958;2023-05-29T10:45:50;98205.66;;;33.30;20.91
9746;BME280;4912;50.836;12.958;2023-05-29T10:48:37;98204.25;;;33.74;22.31
9746;BME280;4912;50.836;12.958;2023-05-29T10:51:24;98193.81;;;34.02;22.01
9746;BME280;4912;50.836;12.958;2023-05-29T10:53:58;98198.84;;;34.25;21.96
9746;BME280;4912;50.836;12.958;2023-05-29T10:56:29;98201.78;;;33.59;23.12
9746;BME280;4912;50.836;12.958;2023-05-29T10:59:00;98195.06;;;33.99;22.51
9746;BME280;4912;50.836;12.958;2023-05-29T11:01:31;98197.75;;;34.41;22.33
9746;BME280;4912;50.836;12.958;2023-05-29T11:04:26;98192.88;;;34.67;21.21
9746;BME280;4912;50.836;12.958;2023-05-29T11:06:59;98193.38;;;34.87;19.14
9746;BME280;4912;50.836;12.958;2023-05-29T11:09:37;98193.63;;;34.44;20.25
9746;BME280;4912;50.836;12.958;2023-05-29T11:12:13;98186.44;;;33.12;22.07
9746;BME280;4912;50.836;12.958;2023-05-29T11:14:55;98193.63;;;31.99;23.31
9746;BME280;4912;50.836;12.958;2023-05-29T11:17:42;98195.50;;;31.17;25.15
9746;BME280;4912;50.836;12.958;2023-05-29T11:20:27;98189.66;;;32.23;23.31
9746;BME280;4912;50.836;12.958;2023-05-29T11:23:03;98181.28;;;33.53;22.27
9746;BME280;4912;50.836;12.958;2023-05-29T11:25:38;98180.75;;;34.45;21.30
9746;BME280;4912;50.836;12.958;2023-05-29T11:28:11;98179.50;;;34.60;19.63
9746;BME280;4912;50.836;12.958;2023-05-29T11:30:45;98186.44;;;35.04;20.07
9746;BME280;4912;50.836;12.958;2023-05-29T11:33:23;98178.91;;;33.82;22.82
9746;BME280;4912;50.836;12.958;2023-05-29T11:35:57;98190.00;;;32.79;22.30
9746;BME280;4912;50.836;12.958;2023-05-29T11:38:29;98176.28;;;33.20;20.55
9746;BME280;4912;50.836;12.958;2023-05-29T11:41:02;98185.38;;;34.27;19.40
9746;BME280;4912;50.836;12.958;2023-05-29T11:43:33;98186.06;;;35.09;20.83
9746;BME280;4912;50.836;12.958;2023-05-29T11:46:17;98178.69;;;35.80;20.33
9746;BME280;4912;50.836;12.958;2023-05-29T11:48:48;98177.66;;;36.40;19.89
9746;BME280;4912;50.836;12.958;2023-05-29T11:51:19;98186.97;;;36.93;19.58
9746;BME280;4912;50.836;12.958;2023-05-29T11:53:50;98173.56;;;37.27;18.87
9746;BME280;4912;50.836;12.958;2023-05-29T11:56:28;98177.84;;;37.55;18.45
9746;BME280;4912;50.836;12.958;2023-05-29T11:58:59;98161.03;;;37.65;16.87
9746;BME280;4912;50.836;12.958;2023-05-29T12:01:34;98175.88;;;37.74;18.42
9746;BME280;4912;50.836;12.958;2023-05-29T12:04:14;98165.88;;;38.06;17.33
9746;BME280;4912;50.836;12.958;2023-05-29T12:06:45;98170.38;;;38.40;18.22
9746;BME280;4912;50.836;12.958;2023-05-29T12:09:25;98167.81;;;38.80;18.38
9746;BME280;4912;50.836;12.958;2023-05-29T12:12:04;98166.25;;;39.10;17.78
9746;BME280;4912;50.836;12.958;2023-05-29T12:14:35;98166.50;;;39.16;16.84
9746;BME280;4912;50.836;12.958;2023-05-29T12:17:06;98170.50;;;39.43;17.36
9746;BME280;4912;50.836;12.958;2023-05-29T12:19:37;98166.81;;;39.40;16.08
9746;BME280;4912;50.836;12.958;2023-05-29T12:22:07;98177.22;;;39.47;16.90
9746;BME280;4912;50.836;12.958;2023-05-29T12:24:38;98166.97;;;39.62;17.38
9746;BME280;4912;50.836;12.958;2023-05-29T12:27:12;98159.56;;;39.59;16.76
9746;BME280;4912;50.836;12.958;2023-05-29T12:29:43;98164.97;;;39.66;16.78
9746;BME280;4912;50.836;12.958;2023-05-29T12:32:14;98167.06;;;39.82;15.74
9746;BME280;4912;50.836;12.958;2023-05-29T12:34:48;98169.22;;;39.81;17.12
9746;BME280;4912;50.836;12.958;2023-05-29T12:37:22;98177.66;;;37.81;17.90
9746;BME280;4912;50.836;12.958;2023-05-29T12:40:11;98165.00;;;38.82;17.66
9746;BME280;4912;50.836;12.958;2023-05-29T12:42:47;98167.47;;;39.39;17.22
9746;BME280;4912;50.836;12.958;2023-05-29T12:45:18;98167.72;;;39.80;17.18
9746;BME280;4912;50.836;12.958;2023-05-29T12:47:52;98166.19;;;39.97;17.21
9746;BME280;4912;50.836;12.958;2023-05-29T12:50:24;98161.69;;;40.29;16.80
9746;BME280;4912;50.836;12.958;2023-05-29T12:52:57;98150.88;;;40.32;15.18
9746;BME280;4912;50.836;12.958;2023-05-29T12:55:29;98146.88;;;40.41;16.42
9746;BME280;4912;50.836;12.958;2023-05-29T12:58:03;98144.56;;;40.37;15.64
9746;BME280;4912;50.836;12.958;2023-05-29T13:00:35;98145.16;;;40.34;15.46
9746;BME280;4912;50.836;12.958;2023-05-29T13:03:06;98138.31;;;40.45;15.73
9746;BME280;4912;50.836;12.958;2023-05-29T13:05:38;98141.97;;;40.45;14.96
9746;BME280;4912;50.836;12.958;2023-05-29T13:08:09;98138.31;;;39.70;16.13
9746;BME280;4912;50.836;12.958;2023-05-29T13:10:39;98145.31;;;40.00;16.60
9746;BME280;4912;50.836;12.958;2023-05-29T13:13:12;98137.78;;;40.31;16.66
9746;BME280;4912;50.836;12.958;2023-05-29T13:15:43;98141.31;;;40.47;15.60
9746;BME280;4912;50.836;12.958;2023-05-29T13:18:13;98142.47;;;40.60;16.13
9746;BME280;4912;50.836;12.958;2023-05-29T13:20:44;98143.44;;;40.66;16.02
9746;BME280;4912;50.836;12.958;2023-05-29T13:23:15;98140.84;;;40.74;15.38
9746;BME280;4912;50.836;12.958;2023-05-29T13:25:45;98138.63;;;40.73;15.71
9746;BME280;4912;50.836;12.958;2023-05-29T13:28:19;98124.66;;;40.89;15.09
9746;BME280;4912;50.836;12.958;2023-05-29T13:30:51;98131.75;;;40.84;15.45
9746;BME280;4912;50.836;12.958;2023-05-29T13:33:22;98117.28;;;40.64;15.23
9746;BME280;4912;50.836;12.958;2023-05-29T13:35:52;98116.00;;;40.69;15.09
9746;BME280;4912;50.836;12.958;2023-05-29T13:38:24;98124.13;;;40.95;16.06
9746;BME280;4912;50.836;12.958;2023-05-29T13:40:55;98128.72;;;40.40;15.60
9746;BME280;4912;50.836;12.958;2023-05-29T13:43:28;98125.00;;;40.38;14.57